sensor_id;sensor_type;location;lat;lon;timestamp;pressure;altitude;pressure_sealevel;temperature;humidity
74722;BME280;63470;49.826;6.740;2023-08-30T00:02:00;99588.91;;;14.12;62.38
74722;BME280;63470;49.826;6.740;2023-08-30T00:04:31;99585.16;;;14.07;62.44
74722;BME280;63470;49.826;6.740;2023-08-30T00:07:01;99582.18;;;14.05;62.46
74722;BME280;63470;49.826;6.740;2023-08-30T00:09:32;99583.33;;;14.01;62.48
74722;BME280;63470;49.826;6.740;2023-08-30T00:12:03;99582.81;;;13.98;62.48
74722;BME280;63470;49.826;6.740;2023-08-30T00:14:33;99584.16;;;13.91;62.49
74722;BME280;63470;49.826;6.740;2023-08-30T00:17:04;99581.41;;;13.83;62.58
74722;BME280;63470;49.826;6.740;2023-08-30T00:19:34;99577.48;;;13.75;62.63
74722;BME280;63470;49.826;6.740;2023-08-30T00:22:08;99578.55;;;13.67;62.69
74722;BME280;63470;49.826;6.740;2023-08-30T00:24:35;99579.97;;;13.58;62.81
74722;BME280;63470;49.826;6.740;2023-08-30T00:27:06;99582.25;;;13.53;62.80
74722;BME280;63470;49.826;6.740;2023-08-30T00:29:38;99585.81;;;13.46;62.84
74722;BME280;63470;49.826;6.740;2023-08-30T00:32:06;99588.61;;;13.43;62.82
74722;BME280;63470;49.826;6.740;2023-08-30T00:34:37;99591.86;;;13.37;62.81
74722;BME280;63470;49.826;6.740;2023-08-30T00:37:11;99597.39;;;13.31;62.87
74722;BME280;63470;49.826;6.740;2023-08-30T00:39:38;99592.56;;;13.27;62.93
74722;BME280;63470;49.826;6.740;2023-08-30T00:42:10;99592.38;;;13.24;62.98
74722;BME280;63470;49.826;6.740;2023-08-30T00:44:39;99588.73;;;13.22;62.96
74722;BME280;63470;49.826;6.740;2023-08-30T00:47:10;99588.64;;;13.20;62.90
74722;BME280;63470;49.826;6.740;2023-08-30T00:49:41;99578.77;;;13.15;62.83
74722;BME280;63470;49.826;6.740;2023-08-30T00:52:14;99583.46;;;13.09;62.85
74722;BME280;63470;49.826;6.740;2023-08-30T00:54:42;99580.43;;;13.03;62.88
74722;BME280;63470;49.826;6.740;2023-08-30T00:57:13;99585.69;;;12.98;62.96
74722;BME280;63470;49.826;6.740;2023-08-30T00:59:51;99573.20;;;12.97;62.92
74722;BME280;63470;49.826;6.740;2023-08-30T01:02:14;99574.02;;;13.00;62.81
74722;BME280;63470;49.826;6.740;2023-08-30T01:04:47;99574.77;;;12.99;62.77
74722;BME280;63470;49.826;6.740;2023-08-30T01:07:15;99572.42;;;12.98;62.74
74722;BME280;63470;49.826;6.740;2023-08-30T01:09:45;99574.41;;;12.98;62.72
74722;BME280;63470;49.826;6.740;2023-08-30T01:12:20;99560.08;;;12.96;62.72
74722;BME280;63470;49.826;6.740;2023-08-30T01:14:59;99558.31;;;12.92;62.72
74722;BME280;63470;49.826;6.740;2023-08-30T01:17:18;99558.41;;;12.89;62.72
74722;BME280;63470;49.826;6.740;2023-08-30T01:20:04;99558.88;;;12.86;62.79
74722;BME280;63470;49.826;6.740;2023-08-30T01:25:12;99565.09;;;12.85;62.89
74722;BME280;63470;49.826;6.740;2023-08-30T01:27:20;99555.84;;;12.89;62.84
74722;BME280;63470;49.826;6.740;2023-08-30T01:29:54;99561.17;;;12.95;62.84
74722;BME280;63470;49.826;6.740;2023-08-30T01:32:24;99560.39;;;13.03;62.73
74722;BME280;63470;49.826;6.740;2023-08-30T01:34:53;99562.39;;;13.09;62.62
74722;BME280;63470;49.826;6.740;2023-08-30T01:37:21;99560.42;;;13.12;62.63
74722;BME280;63470;49.826;6.740;2023-08-30T01:39:52;99562.29;;;13.15;62.60
74722;BME280;63470;49.826;6.740;2023-08-30T01:42:24;99560.55;;;13.22;62.46
74722;BME280;63470;49.826;6.740;2023-08-30T01:44:56;99558.09;;;13.28;62.38
74722;BME280;63470;49.826;6.740;2023-08-30T01:47:24;99553.36;;;13.35;62.39
74722;BME280;63470;49.826;6.740;2023-08-30T01:49:54;99551.07;;;13.45;62.33
74722;BME280;63470;49.826;6.740;2023-08-30T01:52:24;99553.69;;;13.56;62.24
74722;BME280;63470;49.826;6.740;2023-08-30T01:54:54;99549.41;;;13.68;62.11
74722;BME280;63470;49.826;6.740;2023-08-30T01:57:24;99548.47;;;13.77;61.97
74722;BME280;63470;49.826;6.740;2023-08-30T01:59:55;99547.52;;;13.82;61.93
74722;BME280;63470;49.826;6.740;2023-08-30T02:02:29;99545.94;;;13.86;61.97
74722;BME280;63470;49.826;6.740;2023-08-30T02:04:59;99545.34;;;13.90;61.99
74722;BME280;63470;49.826;6.740;2023-08-30T02:10:11;99546.59;;;14.03;61.90
74722;BME280;63470;49.826;6.740;2023-08-30T02:12:34;99543.75;;;14.07;61.87
74722;BME280;63470;49.826;6.740;2023-08-30T02:15:01;99541.93;;;14.11;61.83
74722;BME280;63470;49.826;6.740;2023-08-30T02:17:29;99544.44;;;14.14;61.83
74722;BME280;63470;49.826;6.740;2023-08-30T02:19:58;99544.59;;;14.17;61.83
74722;BME280;63470;49.826;6.740;2023-08-30T02:22:30;99544.98;;;14.19;61.76
74722;BME280;63470;49.826;6.740;2023-08-30T02:24:59;99538.80;;;14.22;61.73
74722;BME280;63470;49.826;6.740;2023-08-30T02:27:31;99535.69;;;14.25;61.69
74722;BME280;63470;49.826;6.740;2023-08-30T02:30:00;99536.36;;;14.27;61.69
74722;BME280;63470;49.826;6.740;2023-08-30T02:32:34;99534.86;;;14.27;61.66
74722;BME280;63470;49.826;6.740;2023-08-30T02:35:02;99538.34;;;14.27;61.62
74722;BME280;63470;49.826;6.740;2023-08-30T02:37:33;99534.45;;;14.27;61.66
74722;BME280;63470;49.826;6.740;2023-08-30T02:40:04;99532.58;;;14.29;61.68
74722;BME280;63470;49.826;6.740;2023-08-30T02:42:34;99532.47;;;14.32;61.66
74722;BME280;63470;49.826;6.740;2023-08-30T02:45:04;99530.13;;;14.34;61.68
74722;BME280;63470;49.826;6.740;2023-08-30T02:47:33;99526.48;;;14.38;61.64
74722;BME280;63470;49.826;6.740;2023-08-30T02:50:08;99526.75;;;14.39;61.59
74722;BME280;63470;49.826;6.740;2023-08-30T02:52:34;99517.44;;;14.40;61.60
74722;BME280;63470;49.826;6.740;2023-08-30T02:55:05;99516.20;;;14.41;61.54
74722;BME280;63470;49.826;6.740;2023-08-30T02:57:35;99515.52;;;14.42;61.54
74722;BME280;63470;49.826;6.740;2023-08-30T03:00:07;99508.67;;;14.40;61.53
74722;BME280;63470;49.826;6.740;2023-08-30T03:02:36;99508.76;;;14.38;61.57
74722;BME280;63470;49.826;6.740;2023-08-30T03:05:06;99509.34;;;14.36;61.59
74722;BME280;63470;49.826;6.740;2023-08-30T03:07:37;99511.01;;;14.32;61.59
74722;BME280;63470;49.826;6.740;2023-08-30T03:10:08;99513.84;;;14.28;61.65
74722;BME280;63470;49.826;6.740;2023-08-30T03:12:38;99512.56;;;14.26;61.72
74722;BME280;63470;49.826;6.740;2023-08-30T03:15:09;99520.19;;;14.25;61.75
74722;BME280;63470;49.826;6.740;2023-08-30T03:17:39;99521.08;;;14.26;61.79
74722;BME280;63470;49.826;6.740;2023-08-30T03:20:10;99519.44;;;14.27;61.81
74722;BME280;63470;49.826;6.740;2023-08-30T03:22:39;99520.00;;;14.27;61.83
74722;BME280;63470;49.826;6.740;2023-08-30T03:25:10;99517.33;;;14.26;61.88
74722;BME280;63470;49.826;6.740;2023-08-30T03:27:41;99516.86;;;14.25;61.91
74722;BME280;63470;49.826;6.740;2023-08-30T03:30:12;99514.56;;;14.22;61.91
74722;BME280;63470;49.826;6.740;2023-08-30T03:32:41;99512.97;;;14.19;61.92
74722;BME280;63470;49.826;6.740;2023-08-30T03:35:12;99514.20;;;14.16;61.99
74722;BME280;63470;49.826;6.740;2023-08-30T03:37:43;99516.88;;;14.15;62.02
74722;BME280;63470;49.826;6.740;2023-08-30T03:40:12;99512.98;;;14.13;61.96
74722;BME280;63470;49.826;6.740;2023-08-30T03:42:43;99511.58;;;14.07;61.89
74722;BME280;63470;49.826;6.740;2023-08-30T03:45:13;99509.98;;;13.99;61.92
74722;BME280;63470;49.826;6.740;2023-08-30T03:47:44;99514.72;;;13.93;61.98
74722;BME280;63470;49.826;6.740;2023-08-30T03:50:15;99511.90;;;13.89;62.06
74722;BME280;63470;49.826;6.740;2023-08-30T03:52:45;99517.53;;;13.87;62.07
74722;BME280;63470;49.826;6.740;2023-08-30T03:55:16;99517.72;;;13.85;62.06
74722;BME280;63470;49.826;6.740;2023-08-30T03:57:46;99514.00;;;13.82;62.12
74722;BME280;63470;49.826;6.740;2023-08-30T04:00:17;99515.73;;;13.82;62.11
74722;BME280;63470;49.826;6.740;2023-08-30T04:02:48;99513.08;;;13.80;62.08
74722;BME280;63470;49.826;6.740;2023-08-30T04:05:18;99508.36;;;13.78;62.06
74722;BME280;63470;49.826;6.740;2023-08-30T04:07:48;99508.76;;;13.77;62.08
74722;BME280;63470;49.826;6.740;2023-08-30T04:10:19;99510.67;;;13.74;62.03
74722;BME280;63470;49.826;6.740;2023-08-30T04:12:50;99506.62;;;13.70;62.04
74722;BME280;63470;49.826;6.740;2023-08-30T04:15:20;99504.80;;;13.70;62.10
74722;BME280;63470;49.826;6.740;2023-08-30T04:17:50;99504.27;;;13.73;62.08
74722;BME280;63470;49.826;6.740;2023-08-30T04:20:21;99501.12;;;13.75;62.05
74722;BME280;63470;49.826;6.740;2023-08-30T04:22:51;99499.12;;;13.75;62.03
74722;BME280;63470;49.826;6.740;2023-08-30T04:25:22;99502.31;;;13.76;62.07
74722;BME280;63470;49.826;6.740;2023-08-30T04:27:54;99508.53;;;13.76;62.04
74722;BME280;63470;49.826;6.740;2023-08-30T04:30:23;99503.14;;;13.76;62.05
74722;BME280;63470;49.826;6.740;2023-08-30T04:32:53;99506.75;;;13.77;62.07
74722;BME280;63470;49.826;6.740;2023-08-30T04:35:24;99505.02;;;13.79;62.07
74722;BME280;63470;49.826;6.740;2023-08-30T04:37:54;99499.56;;;13.80;62.09
74722;BME280;63470;49.826;6.740;2023-08-30T04:40:25;99499.31;;;13.82;62.10
74722;BME280;63470;49.826;6.740;2023-08-30T04:42:58;99493.60;;;13.84;62.12
74722;BME280;63470;49.826;6.740;2023-08-30T04:45:26;99495.16;;;13.86;62.18
74722;BME280;63470;49.826;6.740;2023-08-30T04:47:57;99498.09;;;13.90;62.18
74722;BME280;63470;49.826;6.740;2023-08-30T04:50:27;99492.48;;;13.93;62.18
74722;BME280;63470;49.826;6.740;2023-08-30T04:52:58;99494.69;;;13.96;62.15
74722;BME280;63470;49.826;6.740;2023-08-30T04:55:29;99485.88;;;13.96;62.08
74722;BME280;63470;49.826;6.740;2023-08-30T04:57:59;99488.93;;;13.93;62.13
74722;BME280;63470;49.826;6.740;2023-08-30T05:00:32;99487.36;;;13.89;62.19
74722;BME280;63470;49.826;6.740;2023-08-30T05:03:00;99490.36;;;13.88;62.15
74722;BME280;63470;49.826;6.740;2023-08-30T05:05:31;99490.88;;;13.88;62.13
74722;BME280;63470;49.826;6.740;2023-08-30T05:08:02;99489.60;;;13.87;62.12
74722;BME280;63470;49.826;6.740;2023-08-30T05:10:32;99491.27;;;13.84;62.13
74722;BME280;63470;49.826;6.740;2023-08-30T05:13:04;99494.27;;;13.82;62.21
74722;BME280;63470;49.826;6.740;2023-08-30T05:15:36;99486.89;;;13.80;62.21
74722;BME280;63470;49.826;6.740;2023-08-30T05:18:04;99485.88;;;13.78;62.28
74722;BME280;63470;49.826;6.740;2023-08-30T05:20:34;99488.67;;;13.77;62.33
74722;BME280;63470;49.826;6.740;2023-08-30T05:23:05;99490.78;;;13.78;62.35
74722;BME280;63470;49.826;6.740;2023-08-30T05:25:36;99490.09;;;13.81;62.41
74722;BME280;63470;49.826;6.740;2023-08-30T05:28:08;99489.59;;;13.85;62.36
74722;BME280;63470;49.826;6.740;2023-08-30T05:30:36;99492.24;;;13.87;62.27
74722;BME280;63470;49.826;6.740;2023-08-30T05:33:06;99497.67;;;13.86;62.19
74722;BME280;63470;49.826;6.740;2023-08-30T05:35:36;99499.20;;;13.81;62.24
74722;BME280;63470;49.826;6.740;2023-08-30T05:38:07;99494.25;;;13.83;62.26
74722;BME280;63470;49.826;6.740;2023-08-30T05:40:37;99489.55;;;13.84;62.24
74722;BME280;63470;49.826;6.740;2023-08-30T05:43:08;99487.78;;;13.84;62.27
74722;BME280;63470;49.826;6.740;2023-08-30T05:45:38;99486.14;;;13.84;62.27
74722;BME280;63470;49.826;6.740;2023-08-30T05:48:09;99492.67;;;13.81;62.27
74722;BME280;63470;49.826;6.740;2023-08-30T05:50:41;99498.55;;;13.79;62.29
74722;BME280;63470;49.826;6.740;2023-08-30T05:53:10;99498.12;;;13.77;62.31
74722;BME280;63470;49.826;6.740;2023-08-30T05:55:43;99499.12;;;13.75;62.37
74722;BME280;63470;49.826;6.740;2023-08-30T05:58:12;99493.41;;;13.77;62.31
74722;BME280;63470;49.826;6.740;2023-08-30T06:00:44;99490.79;;;13.78;62.23
74722;BME280;63470;49.826;6.740;2023-08-30T06:03:13;99491.19;;;13.76;62.24
74722;BME280;63470;49.826;6.740;2023-08-30T06:05:46;99488.28;;;13.79;62.25
74722;BME280;63470;49.826;6.740;2023-08-30T06:08:14;99489.55;;;13.80;62.20
74722;BME280;63470;49.826;6.740;2023-08-30T06:10:44;99488.94;;;13.83;62.20
74722;BME280;63470;49.826;6.740;2023-08-30T06:13:15;99487.10;;;13.83;62.20
74722;BME280;63470;49.826;6.740;2023-08-30T06:15:50;99485.85;;;13.87;62.19
74722;BME280;63470;49.826;6.740;2023-08-30T06:18:15;99482.97;;;13.91;62.19
74722;BME280;63470;49.826;6.740;2023-08-30T06:20:46;99480.41;;;13.96;62.11
74722;BME280;63470;49.826;6.740;2023-08-30T06:23:19;99481.62;;;13.99;62.01
74722;BME280;63470;49.826;6.740;2023-08-30T06:25:57;99481.28;;;14.02;62.02
74722;BME280;63470;49.826;6.740;2023-08-30T06:28:17;99480.73;;;14.04;61.97
74722;BME280;63470;49.826;6.740;2023-08-30T06:30:50;99481.88;;;14.01;62.04
74722;BME280;63470;49.826;6.740;2023-08-30T06:33:21;99485.26;;;14.02;62.12
74722;BME280;63470;49.826;6.740;2023-08-30T06:35:51;99485.09;;;14.09;62.18
74722;BME280;63470;49.826;6.740;2023-08-30T06:38:20;99488.81;;;14.19;62.11
74722;BME280;63470;49.826;6.740;2023-08-30T06:40:50;99485.19;;;14.22;62.04
74722;BME280;63470;49.826;6.740;2023-08-30T06:43:20;99485.52;;;14.26;62.05
74722;BME280;63470;49.826;6.740;2023-08-30T06:45:53;99487.80;;;14.27;62.02
74722;BME280;63470;49.826;6.740;2023-08-30T06:48:22;99487.33;;;14.31;62.01
74722;BME280;63470;49.826;6.740;2023-08-30T06:50:52;99492.16;;;14.35;61.94
74722;BME280;63470;49.826;6.740;2023-08-30T06:53:22;99491.98;;;14.41;61.98
74722;BME280;63470;49.826;6.740;2023-08-30T06:55:58;99488.69;;;14.52;61.97
74722;BME280;63470;49.826;6.740;2023-08-30T06:58:24;99491.73;;;14.61;61.87
74722;BME280;63470;49.826;6.740;2023-08-30T07:00:56;99485.38;;;14.68;61.78
74722;BME280;63470;49.826;6.740;2023-08-30T07:03:25;99488.28;;;14.72;61.80
74722;BME280;63470;49.826;6.740;2023-08-30T07:05:55;99481.62;;;14.78;61.78
74722;BME280;63470;49.826;6.740;2023-08-30T07:08:27;99482.64;;;14.86;61.70
74722;BME280;63470;49.826;6.740;2023-08-30T07:10:56;99480.78;;;14.93;61.65
74722;BME280;63470;49.826;6.740;2023-08-30T07:13:27;99483.93;;;14.98;61.63
74722;BME280;63470;49.826;6.740;2023-08-30T07:15:57;99477.11;;;15.01;61.65
74722;BME280;63470;49.826;6.740;2023-08-30T07:18:28;99474.02;;;15.06;61.69
74722;BME280;63470;49.826;6.740;2023-08-30T07:20:58;99476.27;;;15.15;61.69
74722;BME280;63470;49.826;6.740;2023-08-30T07:23:29;99476.99;;;15.25;61.65
74722;BME280;63470;49.826;6.740;2023-08-30T07:25:59;99475.74;;;15.36;61.58
74722;BME280;63470;49.826;6.740;2023-08-30T07:28:30;99478.33;;;15.37;61.48
74722;BME280;63470;49.826;6.740;2023-08-30T07:31:03;99481.17;;;15.45;61.48
74722;BME280;63470;49.826;6.740;2023-08-30T07:33:30;99484.08;;;15.57;61.45
74722;BME280;63470;49.826;6.740;2023-08-30T07:36:01;99484.55;;;15.73;61.33
74722;BME280;63470;49.826;6.740;2023-08-30T07:38:33;99481.44;;;15.88;61.25
74722;BME280;63470;49.826;6.740;2023-08-30T07:41:03;99479.55;;;15.96;61.21
74722;BME280;63470;49.826;6.740;2023-08-30T07:43:35;99472.48;;;16.06;61.16
74722;BME280;63470;49.826;6.740;2023-08-30T07:46:04;99473.75;;;16.19;61.15
74722;BME280;63470;49.826;6.740;2023-08-30T07:48:34;99477.84;;;16.51;60.95
74722;BME280;63470;49.826;6.740;2023-08-30T07:51:05;99473.20;;;16.94;60.54
74722;BME280;63470;49.826;6.740;2023-08-30T07:53:35;99472.25;;;17.30;60.31
74722;BME280;63470;49.826;6.740;2023-08-30T07:56:05;99472.42;;;17.70;60.27
74722;BME280;63470;49.826;6.740;2023-08-30T07:58:36;99470.71;;;18.19;59.90
74722;BME280;63470;49.826;6.740;2023-08-30T08:01:06;99470.71;;;18.61;59.70
74722;BME280;63470;49.826;6.740;2023-08-30T08:03:37;99470.02;;;19.01;59.47
74722;BME280;63470;49.826;6.740;2023-08-30T08:06:07;99473.56;;;19.27;59.41
74722;BME280;63470;49.826;6.740;2023-08-30T08:08:38;99468.84;;;19.49;59.23
74722;BME280;63470;49.826;6.740;2023-08-30T08:11:09;99471.84;;;19.62;59.46
74722;BME280;63470;49.826;6.740;2023-08-30T08:13:39;99472.03;;;20.01;59.26
74722;BME280;63470;49.826;6.740;2023-08-30T08:16:10;99471.89;;;20.38;59.08
74722;BME280;63470;49.826;6.740;2023-08-30T08:18:40;99473.94;;;20.62;58.65
74722;BME280;63470;49.826;6.740;2023-08-30T08:21:11;99482.69;;;20.55;58.80
74722;BME280;63470;49.826;6.740;2023-08-30T08:23:41;99476.75;;;20.27;59.55
74722;BME280;63470;49.826;6.740;2023-08-30T08:26:12;99473.94;;;20.38;59.36
74722;BME280;63470;49.826;6.740;2023-08-30T08:28:43;99470.84;;;20.28;59.58
74722;BME280;63470;49.826;6.740;2023-08-30T08:31:13;99469.35;;;20.27;59.51
74722;BME280;63470;49.826;6.740;2023-08-30T08:33:44;99462.91;;;20.55;59.17
74722;BME280;63470;49.826;6.740;2023-08-30T08:36:14;99465.61;;;20.71;58.90
74722;BME280;63470;49.826;6.740;2023-08-30T08:38:45;99461.47;;;20.67;59.04
74722;BME280;63470;49.826;6.740;2023-08-30T08:41:15;99453.02;;;21.06;58.72
74722;BME280;63470;49.826;6.740;2023-08-30T08:43:47;99454.36;;;21.70;58.15
74722;BME280;63470;49.826;6.740;2023-08-30T08:46:17;99447.28;;;22.01;58.00
74722;BME280;63470;49.826;6.740;2023-08-30T08:48:49;99441.78;;;22.27;57.77
74722;BME280;63470;49.826;6.740;2023-08-30T08:51:18;99436.98;;;22.68;57.35
74722;BME280;63470;49.826;6.740;2023-08-30T08:53:48;99436.88;;;23.14;57.20
74722;BME280;63470;49.826;6.740;2023-08-30T08:56:19;99442.05;;;23.45;57.18
74722;BME280;63470;49.826;6.740;2023-08-30T08:58:50;99436.65;;;23.63;57.18
74722;BME280;63470;49.826;6.740;2023-08-30T09:01:20;99433.61;;;23.96;57.18
74722;BME280;63470;49.826;6.740;2023-08-30T09:03:51;99427.68;;;24.19;57.09
74722;BME280;63470;49.826;6.740;2023-08-30T09:06:21;99430.41;;;24.33;57.06
74722;BME280;63470;49.826;6.740;2023-08-30T09:08:52;99427.44;;;24.49;57.17
74722;BME280;63470;49.826;6.740;2023-08-30T09:11:23;99434.55;;;24.63;57.25
74722;BME280;63470;49.826;6.740;2023-08-30T09:13:53;99431.00;;;24.78;57.35
74722;BME280;63470;49.826;6.740;2023-08-30T09:16:24;99424.09;;;24.98;57.32
74722;BME280;63470;49.826;6.740;2023-08-30T09:19:02;99424.34;;;25.24;57.23
74722;BME280;63470;49.826;6.740;2023-08-30T09:21:25;99418.61;;;25.61;57.04
74722;BME280;63470;49.826;6.740;2023-08-30T09:23:56;99415.16;;;25.86;56.95
74722;BME280;63470;49.826;6.740;2023-08-30T09:26:27;99414.92;;;26.01;56.86
74722;BME280;63470;49.826;6.740;2023-08-30T09:29:03;99407.42;;;25.92;56.91
74722;BME280;63470;49.826;6.740;2023-08-30T09:31:33;99402.55;;;26.03;57.12
74722;BME280;63470;49.826;6.740;2023-08-30T09:33:59;99398.59;;;26.35;57.03
74722;BME280;63470;49.826;6.740;2023-08-30T09:36:38;99395.44;;;26.80;56.62
74722;BME280;63470;49.826;6.740;2023-08-30T09:38:59;99391.70;;;27.24;56.23
74722;BME280;63470;49.826;6.740;2023-08-30T09:41:30;99386.71;;;27.60;55.84
74722;BME280;63470;49.826;6.740;2023-08-30T09:44:14;99380.48;;;27.45;56.08
74722;BME280;63470;49.826;6.740;2023-08-30T09:46:30;99378.70;;;27.38;56.09
74722;BME280;63470;49.826;6.740;2023-08-30T09:49:01;99381.70;;;27.39;56.05
74722;BME280;63470;49.826;6.740;2023-08-30T09:51:33;99383.19;;;27.39;56.38
74722;BME280;63470;49.826;6.740;2023-08-30T09:54:04;99380.13;;;26.72;57.21
74722;BME280;63470;49.826;6.740;2023-08-30T09:56:35;99384.52;;;25.67;58.69
74722;BME280;63470;49.826;6.740;2023-08-30T09:59:04;99386.41;;;24.77;59.73
74722;BME280;63470;49.826;6.740;2023-08-30T10:01:35;99384.84;;;24.10;60.41
74722;BME280;63470;49.826;6.740;2023-08-30T10:04:06;99387.15;;;23.59;60.78
74722;BME280;63470;49.826;6.740;2023-08-30T10:06:38;99383.82;;;23.18;61.16
74722;BME280;63470;49.826;6.740;2023-08-30T10:09:08;99378.86;;;22.93;61.20
74722;BME280;63470;49.826;6.740;2023-08-30T10:11:38;99374.39;;;22.65;61.21
74722;BME280;63470;49.826;6.740;2023-08-30T10:14:11;99372.05;;;22.43;61.21
74722;BME280;63470;49.826;6.740;2023-08-30T10:16:44;99371.44;;;22.42;60.89
74722;BME280;63470;49.826;6.740;2023-08-30T10:19:15;99365.40;;;22.97;60.17
74722;BME280;63470;49.826;6.740;2023-08-30T10:21:40;99366.11;;;23.19;59.60
74722;BME280;63470;49.826;6.740;2023-08-30T10:24:13;99366.16;;;23.33;59.20
74722;BME280;63470;49.826;6.740;2023-08-30T10:26:44;99362.11;;;23.69;58.73
74722;BME280;63470;49.826;6.740;2023-08-30T10:29:15;99364.30;;;23.78;58.61
74722;BME280;63470;49.826;6.740;2023-08-30T10:31:41;99357.52;;;23.82;58.43
74722;BME280;63470;49.826;6.740;2023-08-30T10:34:16;99346.91;;;24.53;57.69
74722;BME280;63470;49.826;6.740;2023-08-30T10:36:44;99350.82;;;25.63;56.69
74722;BME280;63470;49.826;6.740;2023-08-30T10:39:14;99341.21;;;26.31;55.94
74722;BME280;63470;49.826;6.740;2023-08-30T10:41:56;99342.97;;;26.07;56.24
74722;BME280;63470;49.826;6.740;2023-08-30T10:44:17;99344.56;;;25.28;57.29
74722;BME280;63470;49.826;6.740;2023-08-30T10:46:53;99344.62;;;24.50;58.45
74722;BME280;63470;49.826;6.740;2023-08-30T10:49:18;99346.23;;;24.09;58.99
74722;BME280;63470;49.826;6.740;2023-08-30T10:51:55;99346.75;;;23.85;59.24
74722;BME280;63470;49.826;6.740;2023-08-30T10:54:17;99334.80;;;23.56;59.55
74722;BME280;63470;49.826;6.740;2023-08-30T10:56:55;99340.52;;;23.23;59.89
74722;BME280;63470;49.826;6.740;2023-08-30T10:59:19;99343.23;;;22.87;60.15
74722;BME280;63470;49.826;6.740;2023-08-30T11:01:49;99337.69;;;22.45;60.58
74722;BME280;63470;49.826;6.740;2023-08-30T11:04:19;99336.83;;;22.00;60.94
74722;BME280;63470;49.826;6.740;2023-08-30T11:06:51;99332.86;;;21.52;61.32
74722;BME280;63470;49.826;6.740;2023-08-30T11:09:21;99338.41;;;21.10;61.69
74722;BME280;63470;49.826;6.740;2023-08-30T11:11:51;99340.16;;;20.76;61.98
74722;BME280;63470;49.826;6.740;2023-08-30T11:14:20;99338.80;;;20.51;62.07
74722;BME280;63470;49.826;6.740;2023-08-30T11:16:51;99341.80;;;20.25;62.14
74722;BME280;63470;49.826;6.740;2023-08-30T11:19:21;99356.39;;;19.92;62.39
74722;BME280;63470;49.826;6.740;2023-08-30T11:21:52;99352.98;;;19.41;62.82
74722;BME280;63470;49.826;6.740;2023-08-30T11:24:22;99356.98;;;19.03;63.08
74722;BME280;63470;49.826;6.740;2023-08-30T11:26:53;99356.20;;;18.68;63.36
74722;BME280;63470;49.826;6.740;2023-08-30T11:29:26;99351.88;;;18.48;63.49
74722;BME280;63470;49.826;6.740;2023-08-30T11:31:54;99345.66;;;18.47;63.37
74722;BME280;63470;49.826;6.740;2023-08-30T11:34:24;99348.75;;;18.66;63.01
74722;BME280;63470;49.826;6.740;2023-08-30T11:36:55;99349.54;;;18.92;62.55
74722;BME280;63470;49.826;6.740;2023-08-30T11:39:28;99342.67;;;19.24;62.03
74722;BME280;63470;49.826;6.740;2023-08-30T11:41:59;99343.05;;;19.70;61.40
74722;BME280;63470;49.826;6.740;2023-08-30T11:44:28;99339.34;;;20.09;60.75
74722;BME280;63470;49.826;6.740;2023-08-30T11:46:59;99332.28;;;20.41;60.32
74722;BME280;63470;49.826;6.740;2023-08-30T11:49:30;99328.88;;;20.55;60.21
74722;BME280;63470;49.826;6.740;2023-08-30T11:51:59;99325.95;;;20.65;60.13
74722;BME280;63470;49.826;6.740;2023-08-30T11:54:31;99330.73;;;20.65;60.12
74722;BME280;63470;49.826;6.740;2023-08-30T11:56:59;99329.52;;;20.63;60.16
74722;BME280;63470;49.826;6.740;2023-08-30T11:59:34;99327.23;;;20.82;59.78
74722;BME280;63470;49.826;6.740;2023-08-30T12:02:00;99321.08;;;21.54;58.83
74722;BME280;63470;49.826;6.740;2023-08-30T12:04:31;99320.31;;;22.60;57.94
74722;BME280;63470;49.826;6.740;2023-08-30T12:07:01;99312.84;;;23.24;57.28
74722;BME280;63470;49.826;6.740;2023-08-30T12:09:32;99313.88;;;23.74;56.85
74722;BME280;63470;49.826;6.740;2023-08-30T12:12:10;99314.75;;;24.02;56.70
74722;BME280;63470;49.826;6.740;2023-08-30T12:14:33;99308.68;;;24.13;56.71
74722;BME280;63470;49.826;6.740;2023-08-30T12:17:04;99301.77;;;23.91;57.14
74722;BME280;63470;49.826;6.740;2023-08-30T12:19:33;99303.81;;;23.42;57.88
74722;BME280;63470;49.826;6.740;2023-08-30T12:22:04;99307.10;;;23.00;58.59
74722;BME280;63470;49.826;6.740;2023-08-30T12:24:45;99301.64;;;22.75;59.04
74722;BME280;63470;49.826;6.740;2023-08-30T12:27:06;99302.28;;;22.57;59.25
74722;BME280;63470;49.826;6.740;2023-08-30T12:29:37;99296.30;;;22.30;59.43
74722;BME280;63470;49.826;6.740;2023-08-30T12:32:07;99297.44;;;22.21;59.54
74722;BME280;63470;49.826;6.740;2023-08-30T12:34:39;99296.00;;;22.40;59.35
74722;BME280;63470;49.826;6.740;2023-08-30T12:37:08;99288.12;;;22.78;58.83
74722;BME280;63470;49.826;6.740;2023-08-30T12:39:38;99291.81;;;22.90;58.60
74722;BME280;63470;49.826;6.740;2023-08-30T12:42:09;99291.50;;;22.68;58.84
74722;BME280;63470;49.826;6.740;2023-08-30T12:44:40;99290.73;;;22.42;59.16
74722;BME280;63470;49.826;6.740;2023-08-30T12:47:14;99288.75;;;22.24;59.45
74722;BME280;63470;49.826;6.740;2023-08-30T12:49:41;99292.09;;;22.21;59.44
74722;BME280;63470;49.826;6.740;2023-08-30T12:52:12;99295.62;;;22.20;59.43
74722;BME280;63470;49.826;6.740;2023-08-30T12:54:43;99289.72;;;22.07;59.48
74722;BME280;63470;49.826;6.740;2023-08-30T12:57:12;99285.88;;;21.80;59.76
74722;BME280;63470;49.826;6.740;2023-08-30T12:59:43;99290.84;;;21.51;60.17
74722;BME280;63470;49.826;6.740;2023-08-30T13:02:13;99288.95;;;21.30;60.36
74722;BME280;63470;49.826;6.740;2023-08-30T13:04:44;99289.69;;;21.14;60.40
74722;BME280;63470;49.826;6.740;2023-08-30T13:07:14;99284.61;;;21.05;60.47
74722;BME280;63470;49.826;6.740;2023-08-30T13:09:45;99288.05;;;21.08;60.37
74722;BME280;63470;49.826;6.740;2023-08-30T13:12:15;99284.56;;;21.12;60.18
74722;BME280;63470;49.826;6.740;2023-08-30T13:14:46;99280.12;;;21.14;60.05
74722;BME280;63470;49.826;6.740;2023-08-30T13:17:21;99280.41;;;21.13;60.00
74722;BME280;63470;49.826;6.740;2023-08-30T13:19:48;99282.72;;;21.16;59.92
74722;BME280;63470;49.826;6.740;2023-08-30T13:22:17;99280.85;;;21.10;59.95